sensor_id;sensor_type;location;lat;lon;timestamp;pressure;altitude;pressure_sealevel;temperature;humidity
56671;BME280;42545;50.054;8.306;2023-05-08T00:00:42;100282.97;;;14.18;100.00
56671;BME280;42545;50.054;8.306;2023-05-08T00:03:09;100280.28;;;14.17;100.00
56671;BME280;42545;50.054;8.306;2023-05-08T00:05:39;100277.63;;;14.14;100.00
56671;BME280;42545;50.054;8.306;2023-05-08T00:08:06;100274.94;;;14.11;100.00
56671;BME280;42545;50.054;8.306;2023-05-08T00:10:33;100280.25;;;14.09;100.00
56671;BME280;42545;50.054;8.306;2023-05-08T00:12:59;100274.03;;;14.07;100.00
56671;BME280;42545;50.054;8.306;2023-05-08T00:15:26;100272.25;;;14.04;100.00
56671;BME280;42545;50.054;8.306;2023-05-08T00:17:52;100272.25;;;14.04;100.00
56671;BME280;42545;50.054;8.306;2023-05-08T00:20:19;100278.44;;;14.02;100.00
56671;BME280;42545;50.054;8.306;2023-05-08T00:22:47;100270.47;;;13.99;100.00
56671;BME280;42545;50.054;8.306;2023-05-08T00:25:13;100275.78;;;14.02;100.00
56671;BME280;42545;50.054;8.306;2023-05-08T00:27:40;100273.13;;;13.99;100.00
56671;BME280;42545;50.054;8.306;2023-05-08T00:30:07;100281.06;;;13.99;100.00
56671;BME280;42545;50.054;8.306;2023-05-08T00:32:34;100281.97;;;13.96;100.00
56671;BME280;42545;50.054;8.306;2023-05-08T00:35:00;100287.25;;;13.95;100.00
56671;BME280;42545;50.054;8.306;2023-05-08T00:37:27;100288.13;;;13.95;100.00
56671;BME280;42545;50.054;8.306;2023-05-08T00:39:55;100291.66;;;13.93;100.00
56671;BME280;42545;50.054;8.306;2023-05-08T00:42:21;100284.56;;;13.90;100.00
56671;BME280;42545;50.054;8.306;2023-05-08T00:44:48;100283.66;;;13.90;100.00
56671;BME280;42545;50.054;8.306;2023-05-08T00:47:15;100278.34;;;13.88;100.00
56671;BME280;42545;50.054;8.306;2023-05-08T00:49:41;100285.41;;;13.86;100.00
56671;BME280;42545;50.054;8.306;2023-05-08T00:52:08;100284.53;;;13.86;100.00
56671;BME280;42545;50.054;8.306;2023-05-08T00:54:36;100282.75;;;13.84;100.00
56671;BME280;42545;50.054;8.306;2023-05-08T00:57:06;100290.72;;;13.84;100.00
56671;BME280;42545;50.054;8.306;2023-05-08T00:59:34;100288.06;;;13.84;100.00
56671;BME280;42545;50.054;8.306;2023-05-08T01:02:01;100294.22;;;13.85;100.00
56671;BME280;42545;50.054;8.306;2023-05-08T01:04:29;100283.63;;;13.85;100.00
56671;BME280;42545;50.054;8.306;2023-05-08T01:06:55;100290.72;;;13.84;100.00
56671;BME280;42545;50.054;8.306;2023-05-08T01:09:22;100287.16;;;13.82;100.00
56671;BME280;42545;50.054;8.306;2023-05-08T01:11:53;100289.81;;;13.82;100.00
56671;BME280;42545;50.054;8.306;2023-05-08T01:14:30;100288.91;;;13.80;100.00
56671;BME280;42545;50.054;8.306;2023-05-08T01:17:11;100302.19;;;13.82;100.00
56671;BME280;42545;50.054;8.306;2023-05-08T01:19:52;100302.19;;;13.82;100.00
56671;BME280;42545;50.054;8.306;2023-05-08T01:22:50;100303.06;;;13.82;100.00
56671;BME280;42545;50.054;8.306;2023-05-08T01:25:45;100304.81;;;13.79;100.00
56671;BME280;42545;50.054;8.306;2023-05-08T01:28:37;100308.31;;;13.75;100.00
56671;BME280;42545;50.054;8.306;2023-05-08T01:31:16;100303.88;;;13.72;100.00
56671;BME280;42545;50.054;8.306;2023-05-08T01:33:53;100301.19;;;13.68;100.00
56671;BME280;42545;50.054;8.306;2023-05-08T01:36:27;100305.59;;;13.69;100.00
56671;BME280;42545;50.054;8.306;2023-05-08T01:39:04;100304.72;;;13.67;100.00
56671;BME280;42545;50.054;8.306;2023-05-08T01:41:35;100315.31;;;13.67;100.00
56671;BME280;42545;50.054;8.306;2023-05-08T01:44:09;100306.44;;;13.61;100.00
56671;BME280;42545;50.054;8.306;2023-05-08T01:46:38;100309.09;;;13.61;100.00
56671;BME280;42545;50.054;8.306;2023-05-08T01:49:08;100304.66;;;13.59;100.00
56671;BME280;42545;50.054;8.306;2023-05-08T01:51:39;100318.78;;;13.58;100.00
56671;BME280;42545;50.054;8.306;2023-05-08T01:54:10;100316.09;;;13.53;100.00
56671;BME280;42545;50.054;8.306;2023-05-08T01:56:39;100313.41;;;13.50;100.00
56671;BME280;42545;50.054;8.306;2023-05-08T01:59:09;100313.34;;;13.42;100.00
56671;BME280;42545;50.054;8.306;2023-05-08T02:01:38;100317.72;;;13.36;100.00
56671;BME280;42545;50.054;8.306;2023-05-08T02:04:07;100322.91;;;13.28;100.00
56671;BME280;42545;50.054;8.306;2023-05-08T02:06:36;100322.84;;;13.20;100.00
56671;BME280;42545;50.054;8.306;2023-05-08T02:09:06;100328.09;;;13.17;100.00
56671;BME280;42545;50.054;8.306;2023-05-08T02:11:34;100330.69;;;13.11;100.00
56671;BME280;42545;50.054;8.306;2023-05-08T02:14:02;100323.56;;;13.04;100.00
56671;BME280;42545;50.054;8.306;2023-05-08T02:16:30;100332.28;;;12.95;100.00
56671;BME280;42545;50.054;8.306;2023-05-08T02:18:59;100321.63;;;12.89;100.00
56671;BME280;42545;50.054;8.306;2023-05-08T02:21:29;100324.22;;;12.84;100.00
56671;BME280;42545;50.054;8.306;2023-05-08T02:23:57;100336.56;;;12.82;100.00
56671;BME280;42545;50.054;8.306;2023-05-08T02:26:25;100333.00;;;12.80;100.00
56671;BME280;42545;50.054;8.306;2023-05-08T02:28:53;100330.28;;;12.74;100.00
56671;BME280;42545;50.054;8.306;2023-05-08T02:31:21;100335.50;;;12.69;100.00
56671;BME280;42545;50.054;8.306;2023-05-08T02:33:48;100332.81;;;12.63;100.00
56671;BME280;42545;50.054;8.306;2023-05-08T02:36:17;100338.91;;;12.58;100.00
56671;BME280;42545;50.054;8.306;2023-05-08T02:38:47;100339.72;;;12.54;100.00
56671;BME280;42545;50.054;8.306;2023-05-08T02:41:17;100340.53;;;12.48;100.00
56671;BME280;42545;50.054;8.306;2023-05-08T02:43:46;100347.53;;;12.41;100.00
56671;BME280;42545;50.054;8.306;2023-05-08T02:46:15;100350.06;;;12.35;100.00
56671;BME280;42545;50.054;8.306;2023-05-08T02:48:51;100349.09;;;12.30;100.00
56671;BME280;42545;50.054;8.306;2023-05-08T02:51:24;100344.66;;;12.27;100.00
56671;BME280;42545;50.054;8.306;2023-05-08T02:53:58;100342.00;;;12.26;100.00
56671;BME280;42545;50.054;8.306;2023-05-08T02:56:33;100339.31;;;12.23;100.00
56671;BME280;42545;50.054;8.306;2023-05-08T02:59:12;100339.22;;;12.17;100.00
56671;BME280;42545;50.054;8.306;2023-05-08T03:01:44;100340.06;;;12.13;100.00
56671;BME280;42545;50.054;8.306;2023-05-08T03:04:18;100340.03;;;12.11;100.00
56671;BME280;42545;50.054;8.306;2023-05-08T03:06:48;100351.44;;;12.07;100.00
56671;BME280;42545;50.054;8.306;2023-05-08T03:09:18;100344.22;;;11.97;100.00
56671;BME280;42545;50.054;8.306;2023-05-08T03:11:47;100349.50;;;11.97;100.00
56671;BME280;42545;50.054;8.306;2023-05-08T03:14:19;100355.66;;;11.94;100.00
56671;BME280;42545;50.054;8.306;2023-05-08T03:16:46;100353.00;;;11.94;100.00
56671;BME280;42545;50.054;8.306;2023-05-08T03:19:19;100346.78;;;11.90;100.00
56671;BME280;42545;50.054;8.306;2023-05-08T03:21:48;100356.47;;;11.91;100.00
56671;BME280;42545;50.054;8.306;2023-05-08T03:24:18;100344.94;;;11.89;100.00
56671;BME280;42545;50.054;8.306;2023-05-08T03:26:47;100352.84;;;11.88;100.00
56671;BME280;42545;50.054;8.306;2023-05-08T03:29:15;100345.81;;;11.87;100.00
56671;BME280;42545;50.054;8.306;2023-05-08T03:31:43;100352.88;;;11.89;100.00
56671;BME280;42545;50.054;8.306;2023-05-08T03:34:11;100355.53;;;11.89;100.00
56671;BME280;42545;50.054;8.306;2023-05-08T03:36:38;100359.94;;;11.89;100.00
56671;BME280;42545;50.054;8.306;2023-05-08T03:39:05;100358.16;;;11.88;100.00
56671;BME280;42545;50.054;8.306;2023-05-08T03:41:33;100359.00;;;11.85;100.00
56671;BME280;42545;50.054;8.306;2023-05-08T03:44:01;100361.59;;;11.82;100.00
56671;BME280;42545;50.054;8.306;2023-05-08T03:46:29;100352.81;;;11.83;100.00
56671;BME280;42545;50.054;8.306;2023-05-08T03:48:57;100359.00;;;11.85;100.00
56671;BME280;42545;50.054;8.306;2023-05-08T03:51:25;100362.56;;;11.87;100.00
56671;BME280;42545;50.054;8.306;2023-05-08T03:53:52;100359.91;;;11.87;100.00
56671;BME280;42545;50.054;8.306;2023-05-08T03:56:19;100353.75;;;11.87;100.00
56671;BME280;42545;50.054;8.306;2023-05-08T03:58:53;100347.53;;;11.86;100.00
56671;BME280;42545;50.054;8.306;2023-05-08T04:01:22;100349.28;;;11.84;100.00
56671;BME280;42545;50.054;8.306;2023-05-08T04:03:55;100351.91;;;11.84;100.00
56671;BME280;42545;50.054;8.306;2023-05-08T04:06:28;100359.84;;;11.83;100.00
56671;BME280;42545;50.054;8.306;2023-05-08T04:09:03;100351.91;;;11.81;100.00
56671;BME280;42545;50.054;8.306;2023-05-08T04:11:36;100360.66;;;11.80;100.00
56671;BME280;42545;50.054;8.306;2023-05-08T04:14:09;100360.66;;;11.79;100.00
56671;BME280;42545;50.054;8.306;2023-05-08T04:16:42;100354.47;;;11.78;100.00
56671;BME280;42545;50.054;8.306;2023-05-08T04:19:18;100356.25;;;11.81;100.00
56671;BME280;42545;50.054;8.306;2023-05-08T04:21:47;100353.63;;;11.79;100.00
56671;BME280;42545;50.054;8.306;2023-05-08T04:24:16;100351.88;;;11.80;100.00
56671;BME280;42545;50.054;8.306;2023-05-08T04:26:43;100350.03;;;11.77;100.00
56671;BME280;42545;50.054;8.306;2023-05-08T04:29:12;100355.31;;;11.77;100.00
56671;BME280;42545;50.054;8.306;2023-05-08T04:31:39;100351.84;;;11.78;100.00
56671;BME280;42545;50.054;8.306;2023-05-08T04:34:07;100357.13;;;11.78;100.00
56671;BME280;42545;50.054;8.306;2023-05-08T04:36:34;100361.53;;;11.78;100.00
56671;BME280;42545;50.054;8.306;2023-05-08T04:39:00;100357.97;;;11.77;100.00
56671;BME280;42545;50.054;8.306;2023-05-08T04:41:28;100361.50;;;11.76;100.00
56671;BME280;42545;50.054;8.306;2023-05-08T04:43:54;100365.91;;;11.76;100.00
56671;BME280;42545;50.054;8.306;2023-05-08T04:46:23;100371.19;;;11.76;100.00
56671;BME280;42545;50.054;8.306;2023-05-08T04:48:50;100366.72;;;11.73;100.00
56671;BME280;42545;50.054;8.306;2023-05-08T04:51:17;100371.97;;;11.71;100.00
56671;BME280;42545;50.054;8.306;2023-05-08T04:53:45;100376.34;;;11.69;100.00
56671;BME280;42545;50.054;8.306;2023-05-08T04:56:12;100381.63;;;11.66;100.00
56671;BME280;42545;50.054;8.306;2023-05-08T04:58:39;100388.66;;;11.67;100.00
56671;BME280;42545;50.054;8.306;2023-05-08T05:01:05;100388.66;;;11.67;100.00
56671;BME280;42545;50.054;8.306;2023-05-08T05:03:33;100386.94;;;11.69;100.00
56671;BME280;42545;50.054;8.306;2023-05-08T05:06:02;100384.19;;;11.63;100.00
56671;BME280;42545;50.054;8.306;2023-05-08T05:08:29;100404.50;;;11.66;100.00
56671;BME280;42545;50.054;8.306;2023-05-08T05:10:55;100400.94;;;11.64;100.00
56671;BME280;42545;50.054;8.306;2023-05-08T05:13:22;100406.25;;;11.65;100.00
56671;BME280;42545;50.054;8.306;2023-05-08T05:15:49;100406.25;;;11.65;100.00
56671;BME280;42545;50.054;8.306;2023-05-08T05:18:18;100410.69;;;11.66;100.00
56671;BME280;42545;50.054;8.306;2023-05-08T05:20:46;100402.75;;;11.66;100.00
56671;BME280;42545;50.054;8.306;2023-05-08T05:23:13;100408.84;;;11.64;100.00
56671;BME280;42545;50.054;8.306;2023-05-08T05:25:39;100416.78;;;11.64;100.00
56671;BME280;42545;50.054;8.306;2023-05-08T05:28:06;100422.09;;;11.65;100.00
56671;BME280;42545;50.054;8.306;2023-05-08T05:30:32;100427.41;;;11.65;100.00
56671;BME280;42545;50.054;8.306;2023-05-08T05:32:59;100432.75;;;11.68;100.00
56671;BME280;42545;50.054;8.306;2023-05-08T05:35:25;100438.06;;;11.71;100.00
56671;BME280;42545;50.054;8.306;2023-05-08T05:37:53;100428.41;;;11.72;100.00
56671;BME280;42545;50.054;8.306;2023-05-08T05:40:20;100429.25;;;11.71;100.00
56671;BME280;42545;50.054;8.306;2023-05-08T05:42:49;100431.88;;;11.69;100.00
56671;BME280;42545;50.054;8.306;2023-05-08T05:45:16;100425.66;;;11.67;100.00
56671;BME280;42545;50.054;8.306;2023-05-08T05:47:43;100426.53;;;11.66;100.00
56671;BME280;42545;50.054;8.306;2023-05-08T05:50:11;100430.06;;;11.67;100.00
56671;BME280;42545;50.054;8.306;2023-05-08T05:52:37;100435.34;;;11.67;100.00
56671;BME280;42545;50.054;8.306;2023-05-08T05:55:06;100438.88;;;11.67;100.00
56671;BME280;42545;50.054;8.306;2023-05-08T05:57:33;100439.75;;;11.68;100.00
56671;BME280;42545;50.054;8.306;2023-05-08T05:59:59;100437.16;;;11.69;100.00
56671;BME280;42545;50.054;8.306;2023-05-08T06:02:26;100441.59;;;11.70;100.00
56671;BME280;42545;50.054;8.306;2023-05-08T06:04:52;100439.91;;;11.74;100.00
56671;BME280;42545;50.054;8.306;2023-05-08T06:07:19;100434.63;;;11.76;100.00
56671;BME280;42545;50.054;8.306;2023-05-08T06:09:46;100436.41;;;11.77;100.00
56671;BME280;42545;50.054;8.306;2023-05-08T06:12:14;100440.00;;;11.80;100.00
56671;BME280;42545;50.054;8.306;2023-05-08T06:14:42;100444.47;;;11.83;100.00
56671;BME280;42545;50.054;8.306;2023-05-08T06:17:08;100438.25;;;11.82;100.00
56671;BME280;42545;50.054;8.306;2023-05-08T06:19:35;100448.84;;;11.82;100.00
56671;BME280;42545;50.054;8.306;2023-05-08T06:22:02;100447.09;;;11.83;100.00
56671;BME280;42545;50.054;8.306;2023-05-08T06:24:29;100448.84;;;11.82;100.00
56671;BME280;42545;50.054;8.306;2023-05-08T06:26:56;100455.03;;;11.84;100.00
56671;BME280;42545;50.054;8.306;2023-05-08T06:29:24;100455.09;;;11.87;100.00
56671;BME280;42545;50.054;8.306;2023-05-08T06:31:51;100451.56;;;11.87;100.00
56671;BME280;42545;50.054;8.306;2023-05-08T06:34:17;100456.97;;;11.91;100.00
56671;BME280;42545;50.054;8.306;2023-05-08T06:36:44;100449.06;;;11.93;100.00
56671;BME280;42545;50.054;8.306;2023-05-08T06:39:10;100455.22;;;11.93;100.00
56671;BME280;42545;50.054;8.306;2023-05-08T06:41:37;100449.13;;;11.96;100.00
56671;BME280;42545;50.054;8.306;2023-05-08T06:44:03;100452.75;;;12.01;100.00
56671;BME280;42545;50.054;8.306;2023-05-08T06:46:31;100450.16;;;12.06;100.00
56671;BME280;42545;50.054;8.306;2023-05-08T06:48:58;100442.28;;;12.09;100.00
56671;BME280;42545;50.054;8.306;2023-05-08T06:51:24;100445.94;;;12.16;100.00
56671;BME280;42545;50.054;8.306;2023-05-08T06:53:51;100447.78;;;12.21;100.00
56671;BME280;42545;50.054;8.306;2023-05-08T06:56:17;100446.91;;;12.24;100.00
56671;BME280;42545;50.054;8.306;2023-05-08T06:58:44;100442.53;;;12.26;100.00
56671;BME280;42545;50.054;8.306;2023-05-08T07:01:10;100447.00;;;12.28;100.00
56671;BME280;42545;50.054;8.306;2023-05-08T07:03:38;100448.81;;;12.31;100.00
56671;BME280;42545;50.054;8.306;2023-05-08T07:06:06;100454.97;;;12.31;100.00
56671;BME280;42545;50.054;8.306;2023-05-08T07:08:34;100450.59;;;12.34;100.00
56671;BME280;42545;50.054;8.306;2023-05-08T07:11:01;100451.50;;;12.34;100.00
56671;BME280;42545;50.054;8.306;2023-05-08T07:13:27;100453.31;;;12.38;100.00
56671;BME280;42545;50.054;8.306;2023-05-08T07:15:54;100456.03;;;12.43;100.00
56671;BME280;42545;50.054;8.306;2023-05-08T07:18:21;100459.59;;;12.46;100.00
56671;BME280;42545;50.054;8.306;2023-05-08T07:20:49;100454.31;;;12.46;100.00
56671;BME280;42545;50.054;8.306;2023-05-08T07:23:16;100455.22;;;12.47;100.00
56671;BME280;42545;50.054;8.306;2023-05-08T07:25:43;100460.56;;;12.52;100.00
56671;BME280;42545;50.054;8.306;2023-05-08T07:28:10;100458.88;;;12.57;100.00
56671;BME280;42545;50.054;8.306;2023-05-08T07:30:36;100459.03;;;12.66;100.00
56671;BME280;42545;50.054;8.306;2023-05-08T07:33:03;100460.88;;;12.73;100.00
56671;BME280;42545;50.054;8.306;2023-05-08T07:35:30;100458.31;;;12.78;100.00
56671;BME280;42545;50.054;8.306;2023-05-08T07:37:58;100457.56;;;12.88;100.00
56671;BME280;42545;50.054;8.306;2023-05-08T07:40:24;100459.47;;;12.98;100.00
56671;BME280;42545;50.054;8.306;2023-05-08T07:42:51;100458.63;;;13.02;100.00
56671;BME280;42545;50.054;8.306;2023-05-08T07:45:17;100460.47;;;13.08;100.00
56671;BME280;42545;50.054;8.306;2023-05-08T07:47:48;100464.06;;;13.13;100.00
56671;BME280;42545;50.054;8.306;2023-05-08T07:50:15;100462.31;;;13.15;100.00
56671;BME280;42545;50.054;8.306;2023-05-08T07:52:43;100462.31;;;13.15;100.00
56671;BME280;42545;50.054;8.306;2023-05-08T07:55:12;100462.31;;;13.15;100.00
56671;BME280;42545;50.054;8.306;2023-05-08T07:57:39;100458.81;;;13.18;100.00
56671;BME280;42545;50.054;8.306;2023-05-08T08:00:07;100467.66;;;13.17;100.00
56671;BME280;42545;50.054;8.306;2023-05-08T08:02:35;100453.47;;;13.13;100.00
56671;BME280;42545;50.054;8.306;2023-05-08T08:05:02;100462.34;;;13.17;100.00
56671;BME280;42545;50.054;8.306;2023-05-08T08:07:28;100466.78;;;13.19;100.00
56671;BME280;42545;50.054;8.306;2023-05-08T08:09:56;100460.56;;;13.16;100.00
56671;BME280;42545;50.054;8.306;2023-05-08T08:12:24;100465.91;;;13.19;100.00
56671;BME280;42545;50.054;8.306;2023-05-08T08:14:51;100464.19;;;13.22;100.00
56671;BME280;42545;50.054;8.306;2023-05-08T08:17:17;100462.50;;;13.29;100.00
56671;BME280;42545;50.054;8.306;2023-05-08T08:19:44;100467.91;;;13.35;100.00
56671;BME280;42545;50.054;8.306;2023-05-08T08:22:11;100466.25;;;13.43;100.00
56671;BME280;42545;50.054;8.306;2023-05-08T08:24:37;100465.41;;;13.49;100.00
56671;BME280;42545;50.054;8.306;2023-05-08T08:27:04;100460.13;;;13.52;99.93
56671;BME280;42545;50.054;8.306;2023-05-08T08:29:32;100461.13;;;13.60;100.00
56671;BME280;42545;50.054;8.306;2023-05-08T08:31:59;100466.53;;;13.71;100.00
56671;BME280;42545;50.054;8.306;2023-05-08T08:34:27;100471.03;;;13.78;100.00
56671;BME280;42545;50.054;8.306;2023-05-08T08:36:53;100461.34;;;13.87;99.59
56671;BME280;42545;50.054;8.306;2023-05-08T08:39:21;100465.84;;;13.94;99.76
56671;BME280;42545;50.054;8.306;2023-05-08T08:41:47;100467.66;;;13.99;99.17
56671;BME280;42545;50.054;8.306;2023-05-08T08:44:14;100481.00;;;14.09;99.27
56671;BME280;42545;50.054;8.306;2023-05-08T08:46:49;100474.88;;;14.16;99.17
56671;BME280;42545;50.054;8.306;2023-05-08T08:49:17;100470.47;;;14.15;97.41
56671;BME280;42545;50.054;8.306;2023-05-08T08:51:47;100480.22;;;14.19;96.68
56671;BME280;42545;50.054;8.306;2023-05-08T08:54:20;100479.34;;;14.18;97.12
56671;BME280;42545;50.054;8.306;2023-05-08T08:56:49;100474.03;;;14.21;97.31
56671;BME280;42545;50.054;8.306;2023-05-08T08:59:17;100479.38;;;14.25;97.27
56671;BME280;42545;50.054;8.306;2023-05-08T09:01:47;100474.09;;;14.26;97.69
56671;BME280;42545;50.054;8.306;2023-05-08T09:04:16;100485.66;;;14.34;97.28
56671;BME280;42545;50.054;8.306;2023-05-08T09:06:44;100485.63;;;14.33;96.41
56671;BME280;42545;50.054;8.306;2023-05-08T09:09:11;100480.34;;;14.31;96.23
56671;BME280;42545;50.054;8.306;2023-05-08T09:11:39;100485.59;;;14.27;95.78
56671;BME280;42545;50.054;8.306;2023-05-08T09:14:06;100484.69;;;14.25;95.55
56671;BME280;42545;50.054;8.306;2023-05-08T09:16:32;100489.16;;;14.26;95.65
56671;BME280;42545;50.054;8.306;2023-05-08T09:19:01;100495.31;;;14.25;94.97
56671;BME280;42545;50.054;8.306;2023-05-08T09:21:28;100490.84;;;14.19;94.95
56671;BME280;42545;50.054;8.306;2023-05-08T09:23:56;100501.47;;;14.20;94.90
56671;BME280;42545;50.054;8.306;2023-05-08T09:26:27;100495.25;;;14.20;95.09
56671;BME280;42545;50.054;8.306;2023-05-08T09:29:07;100502.38;;;14.22;95.96
56671;BME280;42545;50.054;8.306;2023-05-08T09:31:34;100500.63;;;14.26;96.39
56671;BME280;42545;50.054;8.306;2023-05-08T09:34:04;100498.88;;;14.28;96.66
56671;BME280;42545;50.054;8.306;2023-05-08T09:36:31;100493.56;;;14.28;96.98
56671;BME280;42545;50.054;8.306;2023-05-08T09:38:59;100505.09;;;14.30;97.10
56671;BME280;42545;50.054;8.306;2023-05-08T09:41:28;100505.16;;;14.35;97.59
56671;BME280;42545;50.054;8.306;2023-05-08T09:44:03;100501.66;;;14.40;97.44
56671;BME280;42545;50.054;8.306;2023-05-08T09:46:30;100508.75;;;14.45;97.58
56671;BME280;42545;50.054;8.306;2023-05-08T09:49:00;100506.97;;;14.45;96.18
56671;BME280;42545;50.054;8.306;2023-05-08T09:51:29;100507.88;;;14.47;96.07
56671;BME280;42545;50.054;8.306;2023-05-08T09:53:57;100500.84;;;14.52;96.55
56671;BME280;42545;50.054;8.306;2023-05-08T09:56:29;100507.13;;;14.59;95.75
56671;BME280;42545;50.054;8.306;2023-05-08T09:58:56;100504.53;;;14.68;95.95
56671;BME280;42545;50.054;8.306;2023-05-08T10:01:28;100499.31;;;14.80;96.22
56671;BME280;42545;50.054;8.306;2023-05-08T10:03:54;100495.75;;;14.83;94.54
56671;BME280;42545;50.054;8.306;2023-05-08T10:06:21;100494.06;;;14.94;95.29
56671;BME280;42545;50.054;8.306;2023-05-08T10:09:05;100500.34;;;15.09;95.10
56671;BME280;42545;50.054;8.306;2023-05-08T10:11:31;100503.91;;;15.15;93.56
56671;BME280;42545;50.054;8.306;2023-05-08T10:13:58;100504.81;;;15.22;93.48
56671;BME280;42545;50.054;8.306;2023-05-08T10:16:27;100504.84;;;15.27;92.55
56671;BME280;42545;50.054;8.306;2023-05-08T10:18:59;100501.34;;;15.32;92.27
56671;BME280;42545;50.054;8.306;2023-05-08T10:21:27;100501.38;;;15.37;91.45
56671;BME280;42545;50.054;8.306;2023-05-08T10:23:59;100504.91;;;15.42;91.08
56671;BME280;42545;50.054;8.306;2023-05-08T10:26:30;100496.09;;;15.52;91.53
56671;BME280;42545;50.054;8.306;2023-05-08T10:28:58;100509.41;;;15.54;89.70
56671;BME280;42545;50.054;8.306;2023-05-08T10:31:33;100503.19;;;15.58;89.37
56671;BME280;42545;50.054;8.306;2023-05-08T10:34:01;100506.75;;;15.62;89.54
56671;BME280;42545;50.054;8.306;2023-05-08T10:36:28;100498.78;;;15.71;90.45
56671;BME280;42545;50.054;8.306;2023-05-08T10:38:57;100498.84;;;15.77;88.56
56671;BME280;42545;50.054;8.306;2023-05-08T10:41:25;100497.94;;;15.76;88.93
56671;BME280;42545;50.054;8.306;2023-05-08T10:43:52;100502.38;;;15.82;87.76
56671;BME280;42545;50.054;8.306;2023-05-08T10:46:21;100493.56;;;15.86;89.06
56671;BME280;42545;50.054;8.306;2023-05-08T10:48:57;100498.00;;;15.90;89.12
56671;BME280;42545;50.054;8.306;2023-05-08T10:51:36;100494.44;;;15.88;87.77
56671;BME280;42545;50.054;8.306;2023-05-08T10:54:09;100495.28;;;15.84;87.95
56671;BME280;42545;50.054;8.306;2023-05-08T10:56:38;100493.53;;;15.82;88.40
56671;BME280;42545;50.054;8.306;2023-05-08T10:59:05;100489.09;;;15.78;88.58
56671;BME280;42545;50.054;8.306;2023-05-08T11:01:31;100492.66;;;15.80;88.74
56671;BME280;42545;50.054;8.306;2023-05-08T11:03:59;100490.84;;;15.80;89.13
56671;BME280;42545;50.054;8.306;2023-05-08T11:06:43;100495.28;;;15.84;89.69
56671;BME280;42545;50.054;8.306;2023-05-08T11:09:18;100488.22;;;15.88;89.97
56671;BME280;42545;50.054;8.306;2023-05-08T11:11:55;100492.66;;;15.87;89.63
56671;BME280;42545;50.054;8.306;2023-05-08T11:14:25;100491.78;;;15.88;89.50
56671;BME280;42545;50.054;8.306;2023-05-08T11:17:02;100489.09;;;15.85;89.33
56671;BME280;42545;50.054;8.306;2023-05-08T11:19:30;100487.34;;;15.83;89.61
56671;BME280;42545;50.054;8.306;2023-05-08T11:22:20;100487.31;;;15.84;89.82
56671;BME280;42545;50.054;8.306;2023-05-08T11:24:53;100478.44;;;15.82;89.96
56671;BME280;42545;50.054;8.306;2023-05-08T11:27:39;100486.44;;;15.84;90.44
56671;BME280;42545;50.054;8.306;2023-05-08T11:30:21;100482.88;;;15.88;90.00
56671;BME280;42545;50.054;8.306;2023-05-08T11:32:57;100485.53;;;15.88;90.08
56671;BME280;42545;50.054;8.306;2023-05-08T11:35:41;100474.00;;;15.86;89.98
56671;BME280;42545;50.054;8.306;2023-05-08T11:38:14;100482.91;;;15.89;90.55
56671;BME280;42545;50.054;8.306;2023-05-08T11:40:47;100479.38;;;15.93;90.92
56671;BME280;42545;50.054;8.306;2023-05-08T11:43:42;100474.91;;;15.88;90.65
56671;BME280;42545;50.054;8.306;2023-05-08T11:46:13;100480.25;;;15.92;90.75
56671;BME280;42545;50.054;8.306;2023-05-08T11:48:40;100473.13;;;15.91;90.30
56671;BME280;42545;50.054;8.306;2023-05-08T11:51:08;100475.81;;;15.88;90.35
56671;BME280;42545;50.054;8.306;2023-05-08T11:53:35;100483.78;;;15.88;90.81
56671;BME280;42545;50.054;8.306;2023-05-08T11:56:04;100478.47;;;15.87;90.97
56671;BME280;42545;50.054;8.306;2023-05-08T11:58:32;100486.44;;;15.85;91.03
56671;BME280;42545;50.054;8.306;2023-05-08T12:01:00;100482.00;;;15.87;91.83
56671;BME280;42545;50.054;8.306;2023-05-08T12:03:27;100487.31;;;15.84;91.44
56671;BME280;42545;50.054;8.306;2023-05-08T12:05:55;100484.66;;;15.81;91.18
56671;BME280;42545;50.054;8.306;2023-05-08T12:08:22;100483.72;;;15.73;91.18
56671;BME280;42545;50.054;8.306;2023-05-08T12:10:50;100484.63;;;15.73;91.50
56671;BME280;42545;50.054;8.306;2023-05-08T12:13:22;100483.72;;;15.73;92.03
56671;BME280;42545;50.054;8.306;2023-05-08T12:15:51;100477.50;;;15.69;91.65
56671;BME280;42545;50.054;8.306;2023-05-08T12:18:21;100481.03;;;15.62;91.54
56671;BME280;42545;50.054;8.306;2023-05-08T12:20:50;100473.94;;;15.60;91.87
56671;BME280;42545;50.054;8.306;2023-05-08T12:23:17;100470.41;;;15.57;91.66
56671;BME280;42545;50.054;8.306;2023-05-08T12:25:44;100480.13;;;15.52;91.32
56671;BME280;42545;50.054;8.306;2023-05-08T12:28:11;100469.47;;;15.51;92.08
56671;BME280;42545;50.054;8.306;2023-05-08T12:30:39;100476.59;;;15.53;92.63
56671;BME280;42545;50.054;8.306;2023-05-08T12:33:07;100473.03;;;15.56;92.62
56671;BME280;42545;50.054;8.306;2023-05-08T12:35:35;100478.34;;;15.54;92.40
56671;BME280;42545;50.054;8.306;2023-05-08T12:38:03;100473.03;;;15.53;92.54
56671;BME280;42545;50.054;8.306;2023-05-08T12:40:32;100477.50;;;15.55;92.67
56671;BME280;42545;50.054;8.306;2023-05-08T12:43:00;100473.03;;;15.56;92.36
56671;BME280;42545;50.054;8.306;2023-05-08T12:45:29;100481.91;;;15.58;92.49
56671;BME280;42545;50.054;8.306;2023-05-08T12:47:59;100477.50;;;15.65;93.01
56671;BME280;42545;50.054;8.306;2023-05-08T12:50:26;100476.63;;;15.67;92.80
56671;BME280;42545;50.054;8.306;2023-05-08T12:53:00;100481.06;;;15.70;93.40